createdAt,value
2019-02-02T00:01:00.375Z,6.50
2019-02-02T00:04:06.009Z,6.40
2019-02-02T00:07:11.040Z,6.40
2019-02-02T00:10:16.210Z,6.40
2019-02-02T00:13:21.055Z,6.40
2019-02-02T00:16:26.142Z,6.40
2019-02-02T00:19:31.337Z,6.40
2019-02-02T00:22:36.917Z,6.40
2019-02-02T00:25:41.957Z,6.40
2019-02-02T00:28:46.904Z,6.50
2019-02-02T00:31:51.988Z,6.50
2019-02-02T00:34:56.968Z,6.50
2019-02-02T00:38:02.169Z,6.50
2019-02-02T00:41:08.039Z,6.60
2019-02-02T00:44:13.254Z,6.70
2019-02-02T00:47:18.393Z,6.70
2019-02-02T00:50:23.373Z,6.70
2019-02-02T00:53:28.371Z,6.60
2019-02-02T00:56:33.617Z,6.60
2019-02-02T00:59:38.707Z,6.50
2019-02-02T01:02:43.741Z,6.50
2019-02-02T01:05:48.733Z,6.50
2019-02-02T01:08:53.911Z,6.50
2019-02-02T01:11:58.989Z,6.50
2019-02-02T01:15:22.835Z,6.50
2019-02-02T01:18:27.719Z,6.50
2019-02-02T01:21:32.714Z,6.60
2019-02-02T01:24:37.579Z,6.70
2019-02-02T01:27:43.310Z,6.70
2019-02-02T01:30:48.260Z,6.70
2019-02-02T01:33:53.359Z,6.70
2019-02-02T01:36:58.619Z,6.60
2019-02-02T01:40:04.352Z,6.70
2019-02-02T01:43:09.515Z,6.60
2019-02-02T01:46:14.462Z,6.60
2019-02-02T01:49:19.447Z,6.60
2019-02-02T01:52:24.653Z,6.60
2019-02-02T01:55:29.700Z,6.70
2019-02-02T01:58:34.828Z,6.70
2019-02-02T02:01:41.554Z,6.70
2019-02-02T02:04:46.370Z,6.70
2019-02-02T02:07:51.580Z,6.70
2019-02-02T02:10:58.241Z,6.60
2019-02-02T02:14:03.924Z,6.70
2019-02-02T02:17:08.925Z,6.60
2019-02-02T02:20:14.458Z,6.50
2019-02-02T02:23:19.338Z,6.50
2019-02-02T02:26:24.396Z,6.50
2019-02-02T02:29:29.306Z,6.50
2019-02-02T02:32:34.464Z,6.60
2019-02-02T02:35:39.369Z,6.60
2019-02-02T02:38:44.387Z,6.60
2019-02-02T02:41:49.440Z,6.60
2019-02-02T02:44:54.621Z,6.50
2019-02-02T02:47:59.632Z,6.50
2019-02-02T02:51:04.901Z,6.60
2019-02-02T02:54:10.210Z,6.60
2019-02-02T02:57:15.329Z,6.60
2019-02-02T03:00:22.405Z,6.60
2019-02-02T03:03:27.312Z,6.70
2019-02-02T03:06:32.414Z,6.80
2019-02-02T03:09:37.396Z,6.80
2019-02-02T03:12:42.907Z,6.80
2019-02-02T03:15:48.099Z,6.80
2019-02-02T03:18:53.075Z,6.90
2019-02-02T03:21:58.070Z,6.80
2019-02-02T03:25:03.053Z,6.80
2019-02-02T03:28:08.068Z,6.80
2019-02-02T03:31:13.054Z,6.70
2019-02-02T03:34:18.167Z,6.70
2019-02-02T03:37:23.157Z,6.80
2019-02-02T03:40:28.105Z,6.70
2019-02-02T03:43:33.193Z,6.80
2019-02-02T03:46:38.492Z,6.80
2019-02-02T03:49:44.931Z,6.90
2019-02-02T03:52:49.933Z,6.90
2019-02-02T03:55:55.102Z,6.90
2019-02-02T03:59:06.566Z,6.90
2019-02-02T04:02:07.015Z,7.00
2019-02-02T04:05:17.204Z,7.00
2019-02-02T04:08:22.121Z,7.00
2019-02-02T04:11:27.205Z,7.00
2019-02-02T04:14:32.339Z,7.00
2019-02-02T04:17:37.276Z,7.00
2019-02-02T04:20:42.743Z,7.00
2019-02-02T04:23:48.074Z,7.00
2019-02-02T04:26:53.025Z,7.00
2019-02-02T04:29:58.255Z,7.00
2019-02-02T04:33:03.087Z,7.00
2019-02-02T04:36:08.028Z,7.00
2019-02-02T04:39:13.021Z,7.00
2019-02-02T04:42:17.914Z,7.00
2019-02-02T04:45:23.019Z,7.00
2019-02-02T04:48:28.004Z,7.10
2019-02-02T04:51:32.860Z,7.10
2019-02-02T04:54:38.130Z,7.10
2019-02-02T04:57:43.769Z,7.20
2019-02-02T05:00:49.038Z,7.30
2019-02-02T05:03:53.933Z,7.20
2019-02-02T05:06:58.843Z,7.30
2019-02-02T05:10:04.133Z,7.40
2019-02-02T05:13:09.115Z,7.40
2019-02-02T05:16:14.043Z,7.40
2019-02-02T05:19:18.979Z,7.40
2019-02-02T05:22:23.980Z,7.50
2019-02-02T05:25:29.136Z,7.40
2019-02-02T05:28:34.061Z,7.40
2019-02-02T05:31:39.221Z,7.40
2019-02-02T05:34:44.229Z,7.40
2019-02-02T05:37:48.972Z,7.50
2019-02-02T05:40:53.651Z,7.50
2019-02-02T05:43:58.622Z,7.50
2019-02-02T05:47:03.721Z,7.50
2019-02-02T05:50:10.690Z,7.60
2019-02-02T05:53:15.707Z,7.60
2019-02-02T05:56:20.964Z,7.60
2019-02-02T05:59:25.884Z,7.60
2019-02-02T06:02:30.793Z,7.60
2019-02-02T06:05:35.869Z,7.60
2019-02-02T06:08:41.136Z,7.60
2019-02-02T06:11:46.036Z,7.60
2019-02-02T06:14:51.238Z,7.70
2019-02-02T06:17:56.165Z,7.70
2019-02-02T06:21:01.283Z,7.70
2019-02-02T06:24:06.249Z,7.70
2019-02-02T06:27:11.321Z,7.80
2019-02-02T06:30:17.913Z,7.70
2019-02-02T06:33:23.049Z,7.80
2019-02-02T06:36:28.112Z,7.80
2019-02-02T06:39:33.331Z,7.80
2019-02-02T06:42:38.339Z,7.80
2019-02-02T06:45:43.847Z,7.80
2019-02-02T06:48:48.986Z,7.80
2019-02-02T06:51:54.005Z,7.80
2019-02-02T06:54:59.290Z,7.80
2019-02-02T06:58:04.391Z,7.80
2019-02-02T07:01:09.671Z,7.80
2019-02-02T07:04:15.043Z,7.80
2019-02-02T07:07:19.969Z,7.80
2019-02-02T07:10:26.154Z,7.80
2019-02-02T07:13:31.162Z,7.90
2019-02-02T07:16:36.269Z,8.00
2019-02-02T07:19:41.244Z,8.00
2019-02-02T07:22:46.246Z,8.00
2019-02-02T07:25:51.292Z,8.00
2019-02-02T07:28:56.507Z,8.00
2019-02-02T07:32:01.523Z,8.00
2019-02-02T07:35:08.505Z,8.00
2019-02-02T07:38:13.408Z,8.00
2019-02-02T07:41:18.246Z,8.00
2019-02-02T07:44:23.223Z,8.00
2019-02-02T07:47:28.188Z,8.10
2019-02-02T07:50:33.062Z,8.10
2019-02-02T07:53:38.079Z,8.20
2019-02-02T07:56:43.073Z,8.30
2019-02-02T07:59:48.111Z,8.30
2019-02-02T08:02:53.144Z,8.30
2019-02-02T08:05:58.225Z,8.30
2019-02-02T08:09:04.811Z,8.40
2019-02-02T08:12:09.848Z,8.50
2019-02-02T08:15:20.252Z,8.50
2019-02-02T08:18:25.061Z,8.60
2019-02-02T08:21:30.106Z,8.70
2019-02-02T08:24:35.215Z,8.80
2019-02-02T08:27:40.286Z,8.90
2019-02-02T08:30:52.488Z,9.00
2019-02-02T08:33:52.469Z,9.10
2019-02-02T08:36:57.597Z,9.10
2019-02-02T08:40:02.822Z,9.20
2019-02-02T08:43:09.649Z,9.30
2019-02-02T08:46:14.720Z,9.40
2019-02-02T08:49:19.819Z,9.50
2019-02-02T08:52:24.802Z,9.60
2019-02-02T08:55:30.066Z,9.60
2019-02-02T08:58:35.088Z,9.70
2019-02-02T09:01:40.213Z,9.80
2019-02-02T09:04:45.290Z,9.90
2019-02-02T09:07:50.287Z,9.90
2019-02-02T09:10:55.265Z,10.00
2019-02-02T09:14:00.297Z,10.00
2019-02-02T09:17:24.153Z,10.00
2019-02-02T09:20:29.020Z,10.00
2019-02-02T09:23:33.945Z,10.10
2019-02-02T09:26:38.964Z,10.10
2019-02-02T09:29:43.945Z,10.10
2019-02-02T09:32:48.978Z,10.20
2019-02-02T09:35:53.900Z,10.30
2019-02-02T09:38:58.848Z,10.30
2019-02-02T09:42:03.880Z,10.40
2019-02-02T09:45:10.226Z,10.40
2019-02-02T09:48:15.225Z,10.30
2019-02-02T09:51:20.280Z,10.40
2019-02-02T09:54:26.605Z,10.50
2019-02-02T09:57:32.215Z,10.50
2019-02-02T10:00:37.116Z,10.50
2019-02-02T10:03:42.167Z,10.50
2019-02-02T10:06:47.192Z,10.50
2019-02-02T10:10:13.053Z,10.50
2019-02-02T10:13:18.010Z,10.50
2019-02-02T10:16:23.108Z,10.60
2019-02-02T10:19:28.137Z,10.60
2019-02-02T10:22:33.414Z,10.70
2019-02-02T10:25:38.395Z,10.80
2019-02-02T10:28:43.203Z,10.80
2019-02-02T10:31:48.167Z,10.90
2019-02-02T10:34:53.080Z,11.00
2019-02-02T10:37:58.036Z,11.10
2019-02-02T10:41:02.976Z,11.20
2019-02-02T10:44:08.372Z,11.40
2019-02-02T10:47:13.468Z,11.50
2019-02-02T10:50:19.681Z,11.60
2019-02-02T10:53:24.844Z,11.60
2019-02-02T10:56:29.866Z,11.70
2019-02-02T10:59:35.216Z,11.70
2019-02-02T11:02:40.442Z,11.80
2019-02-02T11:05:45.607Z,11.80
2019-02-02T11:08:50.542Z,11.90
2019-02-02T11:11:55.438Z,11.90
2019-02-02T11:15:00.441Z,12.10
2019-02-02T11:18:06.795Z,12.40
2019-02-02T11:21:11.987Z,12.70
2019-02-02T11:24:19.022Z,12.90
2019-02-02T11:27:23.479Z,13.30
2019-02-02T11:30:29.421Z,14.10
2019-02-02T11:33:34.593Z,15.80
2019-02-02T11:36:39.764Z,16.50
2019-02-02T11:39:44.786Z,16.30
2019-02-02T11:42:49.776Z,16.00
2019-02-02T11:45:54.908Z,15.70
2019-02-02T11:48:59.881Z,15.40
2019-02-02T11:52:05.026Z,15.10
2019-02-02T11:55:10.650Z,14.80
2019-02-02T11:58:15.677Z,14.50
2019-02-02T12:01:20.777Z,14.40
2019-02-02T12:04:26.096Z,14.20
2019-02-02T12:07:31.338Z,14.20
2019-02-02T12:10:36.765Z,15.00
2019-02-02T12:13:41.895Z,16.30
2019-02-02T12:16:46.915Z,17.00
2019-02-02T12:19:51.857Z,20.40
2019-02-02T12:22:56.985Z,24.60
2019-02-02T12:26:02.295Z,29.00
2019-02-02T12:29:07.600Z,32.70
2019-02-02T12:32:12.825Z,35.30
2019-02-02T12:35:22.805Z,36.80
2019-02-02T12:38:28.008Z,37.80
2019-02-02T12:41:32.986Z,36.90
2019-02-02T12:44:38.087Z,36.70
2019-02-02T12:47:44.812Z,34.10
2019-02-02T12:50:49.760Z,32.20
2019-02-02T12:53:55.812Z,31.70
2019-02-02T12:57:00.851Z,31.60
2019-02-02T13:00:07.625Z,32.20
2019-02-02T13:03:12.649Z,33.10
2019-02-02T13:06:17.725Z,33.70
2019-02-02T13:09:22.929Z,33.90
2019-02-02T13:12:27.876Z,33.70
2019-02-02T13:15:32.743Z,33.20
2019-02-02T13:18:37.796Z,30.60
2019-02-02T13:21:43.103Z,27.40
2019-02-02T13:24:48.965Z,25.70
2019-02-02T13:27:53.977Z,25.50
2019-02-02T13:30:59.173Z,27.40
2019-02-02T13:34:04.186Z,28.60
2019-02-02T13:37:09.425Z,29.90
2019-02-02T13:40:16.717Z,31.30
2019-02-02T13:43:21.780Z,31.00
2019-02-02T13:46:26.826Z,30.00
2019-02-02T13:49:32.100Z,28.20
2019-02-02T13:52:37.340Z,26.50
2019-02-02T13:55:42.238Z,25.60
2019-02-02T13:58:47.233Z,23.80
2019-02-02T14:01:52.374Z,22.20
2019-02-02T14:04:57.381Z,21.00
2019-02-02T14:08:13.691Z,20.30
2019-02-02T14:11:18.789Z,20.60
2019-02-02T14:14:23.718Z,20.00
2019-02-02T14:17:47.636Z,19.10
2019-02-02T14:20:52.747Z,18.20
2019-02-02T14:23:57.910Z,17.60
2019-02-02T14:27:03.012Z,17.00
2019-02-02T14:30:11.660Z,16.60
2019-02-02T14:33:16.703Z,16.40
2019-02-02T14:36:21.761Z,16.10
2019-02-02T14:39:33.731Z,16.00
2019-02-02T14:42:38.810Z,16.00
2019-02-02T14:45:44.168Z,15.70
2019-02-02T14:48:49.870Z,15.30
2019-02-02T14:51:54.985Z,14.90
2019-02-02T14:55:00.358Z,14.50
2019-02-02T14:58:05.767Z,14.30
2019-02-02T15:01:10.802Z,14.30
2019-02-02T15:04:15.837Z,14.20
2019-02-02T15:07:21.144Z,14.10
2019-02-02T15:10:26.688Z,14.00
2019-02-02T15:13:31.626Z,14.00
2019-02-02T15:16:36.793Z,13.90
2019-02-02T15:19:42.213Z,13.80
2019-02-02T15:22:47.158Z,13.80
2019-02-02T15:25:52.205Z,13.70
2019-02-02T15:28:57.450Z,13.50
2019-02-02T15:32:02.560Z,13.40
2019-02-02T15:35:07.536Z,13.30
2019-02-02T15:38:12.568Z,13.20
2019-02-02T15:41:17.693Z,13.10
2019-02-02T15:44:22.673Z,13.10
2019-02-02T15:47:27.679Z,13.10
2019-02-02T15:50:32.697Z,13.10
2019-02-02T15:53:37.668Z,13.10
2019-02-02T15:56:42.417Z,13.10
2019-02-02T15:59:47.163Z,13.00
2019-02-02T16:02:51.915Z,13.00
2019-02-02T16:05:56.902Z,13.00
2019-02-02T16:09:02.125Z,13.00
2019-02-02T16:12:07.272Z,12.90
2019-02-02T16:15:12.834Z,13.00
2019-02-02T16:18:17.772Z,13.00
2019-02-02T16:21:22.893Z,13.00
2019-02-02T16:24:27.874Z,13.00
2019-02-02T16:27:32.848Z,13.00
2019-02-02T16:30:38.006Z,13.00
2019-02-02T16:33:43.414Z,12.90
2019-02-02T16:36:48.373Z,12.90
2019-02-02T16:39:53.386Z,12.70
2019-02-02T16:42:58.467Z,12.70
2019-02-02T16:46:03.401Z,12.60
2019-02-02T16:49:08.664Z,12.60
2019-02-02T16:52:13.698Z,12.60
2019-02-02T16:55:19.045Z,12.60
2019-02-02T16:58:25.956Z,12.50
2019-02-02T17:01:31.117Z,12.40
2019-02-02T17:04:36.099Z,12.40
2019-02-02T17:07:41.110Z,12.40
2019-02-02T17:10:50.706Z,12.40
2019-02-02T17:13:56.849Z,12.30
2019-02-02T17:17:02.079Z,12.30
2019-02-02T17:20:10.759Z,12.40
2019-02-02T17:23:16.025Z,12.30
2019-02-02T17:26:21.155Z,12.30
2019-02-02T17:29:26.142Z,12.30
2019-02-02T17:32:31.124Z,12.30
2019-02-02T17:35:36.341Z,12.30
2019-02-02T17:38:41.559Z,12.20
2019-02-02T17:41:46.644Z,12.10
2019-02-02T17:44:51.861Z,12.10
2019-02-02T17:47:57.695Z,12.10
2019-02-02T17:51:02.744Z,12.00
2019-02-02T17:54:08.685Z,12.00
2019-02-02T17:57:13.593Z,11.90
2019-02-02T18:00:22.886Z,12.00
2019-02-02T18:03:27.751Z,11.90
2019-02-02T18:06:35.954Z,11.90
2019-02-02T18:09:41.156Z,11.90
2019-02-02T18:12:46.130Z,11.90
2019-02-02T18:15:51.031Z,11.90
2019-02-02T18:18:56.121Z,11.80
2019-02-02T18:22:01.367Z,11.70
2019-02-02T18:25:08.137Z,11.50
2019-02-02T18:28:13.281Z,11.40
2019-02-02T18:31:18.104Z,11.30
2019-02-02T18:34:23.092Z,11.30
2019-02-02T18:37:28.049Z,11.30
2019-02-02T18:40:33.158Z,11.20
2019-02-02T18:43:38.233Z,11.20
2019-02-02T18:46:43.406Z,11.10
2019-02-02T18:49:48.601Z,11.10
2019-02-02T18:52:55.168Z,11.10
2019-02-02T18:56:11.733Z,11.20
2019-02-02T18:59:16.755Z,11.30
2019-02-02T19:02:22.159Z,11.30
2019-02-02T19:05:29.246Z,11.30
2019-02-02T19:08:34.248Z,11.30
2019-02-02T19:11:39.386Z,11.30
2019-02-02T19:14:44.504Z,11.30
2019-02-02T19:17:49.502Z,11.30
2019-02-02T19:20:54.350Z,11.30
2019-02-02T19:24:01.452Z,11.30
2019-02-02T19:27:08.757Z,11.30
2019-02-02T19:30:21.391Z,11.30
2019-02-02T19:33:26.668Z,11.30
2019-02-02T19:36:31.816Z,11.20
2019-02-02T19:39:44.789Z,11.20
2019-02-02T19:42:49.149Z,11.20
2019-02-02T19:45:54.097Z,11.20
2019-02-02T19:48:59.299Z,11.20
2019-02-02T19:52:05.984Z,11.20
2019-02-02T19:55:14.642Z,11.20
2019-02-02T19:58:18.498Z,11.10
2019-02-02T20:01:23.723Z,11.20
2019-02-02T20:04:29.239Z,11.20
2019-02-02T20:07:34.485Z,11.10
2019-02-02T20:10:39.531Z,11.20
2019-02-02T20:13:44.557Z,11.10
2019-02-02T20:16:49.668Z,11.10
2019-02-02T20:19:56.128Z,11.10
2019-02-02T20:23:01.320Z,11.10
2019-02-02T20:26:08.105Z,11.00
2019-02-02T20:29:13.504Z,11.10
2019-02-02T20:32:18.582Z,11.10
2019-02-02T20:35:25.147Z,11.10
2019-02-02T20:38:31.336Z,11.10
2019-02-02T20:41:36.551Z,11.00
2019-02-02T20:44:41.530Z,11.10
2019-02-02T20:47:48.215Z,11.10
2019-02-02T20:50:53.350Z,11.10
2019-02-02T20:53:59.354Z,11.00
2019-02-02T20:57:05.517Z,11.00
2019-02-02T21:00:14.880Z,11.00
2019-02-02T21:03:20.216Z,11.00
2019-02-02T21:06:25.140Z,11.00
2019-02-02T21:09:30.311Z,11.00
2019-02-02T21:12:35.407Z,10.90
2019-02-02T21:15:40.346Z,11.00
2019-02-02T21:18:46.181Z,10.90
2019-02-02T21:21:52.413Z,10.90
2019-02-02T21:24:57.674Z,10.90
2019-02-02T21:28:03.094Z,10.80
2019-02-02T21:31:09.057Z,10.80
2019-02-02T21:34:14.826Z,10.80
2019-02-02T21:37:19.832Z,10.80
2019-02-02T21:40:28.450Z,10.80
2019-02-02T21:43:33.806Z,10.90
2019-02-02T21:46:38.995Z,10.80
2019-02-02T21:49:43.929Z,10.80
2019-02-02T21:52:49.274Z,10.80
2019-02-02T21:55:54.600Z,10.70
2019-02-02T21:58:59.606Z,10.80
2019-02-02T22:02:05.011Z,10.80
2019-02-02T22:05:10.449Z,10.70
2019-02-02T22:08:15.687Z,10.70
2019-02-02T22:11:20.862Z,10.80
2019-02-02T22:14:26.127Z,10.80
2019-02-02T22:17:31.196Z,10.80
2019-02-02T22:20:36.418Z,10.80
2019-02-02T22:23:41.496Z,10.80
2019-02-02T22:26:47.948Z,10.70
2019-02-02T22:29:53.184Z,10.70
2019-02-02T22:32:58.299Z,10.70
2019-02-02T22:36:03.685Z,10.70
2019-02-02T22:39:09.758Z,10.70
2019-02-02T22:42:17.088Z,10.70
2019-02-02T22:45:22.931Z,10.70
2019-02-02T22:48:27.977Z,10.70
2019-02-02T22:51:33.512Z,10.70
2019-02-02T22:54:39.730Z,10.70
2019-02-02T22:57:47.202Z,10.70
2019-02-02T23:01:28.096Z,10.70
2019-02-02T23:05:15.316Z,10.70
2019-02-02T23:08:47.497Z,10.70
2019-02-02T23:12:07.789Z,10.70
2019-02-02T23:15:38.154Z,10.70
2019-02-02T23:18:43.283Z,10.60
2019-02-02T23:21:48.672Z,10.60
2019-02-02T23:24:53.683Z,10.60
2019-02-02T23:27:58.940Z,10.50
2019-02-02T23:31:03.947Z,10.50
2019-02-02T23:34:09.413Z,10.50
2019-02-02T23:37:14.779Z,10.50
2019-02-02T23:40:19.731Z,10.50
2019-02-02T23:43:24.944Z,10.50
2019-02-02T23:46:30.208Z,10.60
2019-02-02T23:49:35.202Z,10.50
2019-02-02T23:52:40.237Z,10.50
2019-02-02T23:55:45.199Z,10.50
2019-02-02T23:58:50.365Z,10.40
